createdAt,value
2018-02-04T00:00:38.642Z,0
2018-02-04T00:01:19.290Z,0
2018-02-04T00:01:59.807Z,0
2018-02-04T00:02:40.379Z,0
2018-02-04T00:03:20.971Z,0
2018-02-04T00:04:01.458Z,0
2018-02-04T00:04:41.922Z,0
2018-02-04T00:05:22.525Z,0
2018-02-04T00:06:03.036Z,0
2018-02-04T00:06:43.550Z,0
2018-02-04T00:07:24.102Z,0
2018-02-04T00:08:04.608Z,0
2018-02-04T00:08:45.220Z,0
2018-02-04T00:09:25.763Z,0
2018-02-04T00:10:06.307Z,0
2018-02-04T00:10:46.811Z,0
2018-02-04T00:11:27.339Z,0
2018-02-04T00:12:07.893Z,0
2018-02-04T00:12:48.415Z,0
2018-02-04T00:13:28.918Z,0
2018-02-04T00:14:09.512Z,0
2018-02-04T00:14:50.007Z,0
2018-02-04T00:15:30.592Z,0
2018-02-04T00:16:11.141Z,0
2018-02-04T00:16:51.643Z,0
2018-02-04T00:17:32.190Z,0
2018-02-04T00:18:12.743Z,0
2018-02-04T00:18:54.079Z,0
2018-02-04T00:19:34.606Z,0
2018-02-04T00:20:15.172Z,0
2018-02-04T00:20:55.692Z,0
2018-02-04T00:21:36.220Z,0
2018-02-04T00:22:16.784Z,0
2018-02-04T00:22:57.360Z,0
2018-02-04T00:23:37.892Z,0
2018-02-04T00:24:18.442Z,0
2018-02-04T00:24:58.988Z,0
2018-02-04T00:25:39.550Z,0
2018-02-04T00:26:20.095Z,0
2018-02-04T00:27:00.634Z,0
2018-02-04T00:27:41.195Z,0
2018-02-04T00:28:21.775Z,0
2018-02-04T00:29:02.343Z,0
2018-02-04T00:29:42.876Z,0
2018-02-04T00:30:23.467Z,0
2018-02-04T00:31:03.993Z,0
2018-02-04T00:31:44.561Z,0
2018-02-04T00:32:25.093Z,0
2018-02-04T00:33:05.604Z,0
2018-02-04T00:33:46.172Z,0
2018-02-04T00:34:26.725Z,0
2018-02-04T00:35:07.221Z,0
2018-02-04T00:35:47.772Z,0
2018-02-04T00:36:28.344Z,0
2018-02-04T00:37:08.830Z,0
2018-02-04T00:37:49.380Z,0
2018-02-04T00:38:29.895Z,0
2018-02-04T00:39:10.567Z,0
2018-02-04T00:39:51.094Z,0
2018-02-04T00:40:31.675Z,0
2018-02-04T00:41:12.178Z,0
2018-02-04T00:41:52.690Z,0
2018-02-04T00:42:33.292Z,0
2018-02-04T00:43:13.797Z,0
2018-02-04T00:43:54.339Z,0
2018-02-04T00:44:34.882Z,0
2018-02-04T00:45:15.478Z,0
2018-02-04T00:45:56.145Z,0
2018-02-04T00:46:36.679Z,0
2018-02-04T00:47:17.224Z,0
2018-02-04T00:47:57.880Z,0
2018-02-04T00:48:38.382Z,0
2018-02-04T00:49:18.938Z,0
2018-02-04T00:49:59.476Z,0
2018-02-04T00:50:40.041Z,0
2018-02-04T00:51:20.591Z,0
2018-02-04T00:52:01.157Z,0
2018-02-04T00:52:41.751Z,0
2018-02-04T00:53:22.269Z,0
2018-02-04T00:54:02.817Z,0
2018-02-04T00:54:43.379Z,0
2018-02-04T00:55:23.924Z,0
2018-02-04T00:56:04.472Z,0
2018-02-04T00:56:45.068Z,0
2018-02-04T00:57:25.597Z,0
2018-02-04T00:58:06.118Z,0
2018-02-04T00:58:46.651Z,0
2018-02-04T00:59:27.201Z,0
2018-02-04T01:00:07.740Z,0
2018-02-04T01:00:48.255Z,0
2018-02-04T01:01:28.798Z,0
2018-02-04T01:02:09.332Z,0
2018-02-04T01:02:49.908Z,0
2018-02-04T01:03:30.457Z,0
2018-02-04T01:04:11.041Z,0
2018-02-04T01:04:51.525Z,0
2018-02-04T01:05:32.084Z,0
2018-02-04T01:06:12.615Z,0
2018-02-04T01:06:53.161Z,0
2018-02-04T01:07:33.675Z,0
2018-02-04T01:08:14.207Z,0
2018-02-04T01:08:54.752Z,0
2018-02-04T01:09:35.296Z,0
2018-02-04T01:10:15.817Z,0
2018-02-04T01:10:56.399Z,0
2018-02-04T01:11:36.907Z,0
2018-02-04T01:12:17.445Z,0
2018-02-04T01:12:57.957Z,0
2018-02-04T01:13:38.547Z,0
2018-02-04T01:14:19.114Z,0
2018-02-04T01:14:59.639Z,0
2018-02-04T01:15:40.188Z,0
2018-02-04T01:16:20.753Z,0
2018-02-04T01:17:01.330Z,0
2018-02-04T01:17:41.841Z,0
2018-02-04T01:18:22.392Z,0
2018-02-04T01:19:02.919Z,0
2018-02-04T01:19:43.460Z,0
2018-02-04T01:20:24.010Z,0
2018-02-04T01:21:04.543Z,0
2018-02-04T01:21:45.060Z,0
2018-02-04T01:22:25.664Z,0
2018-02-04T01:23:06.143Z,0
2018-02-04T01:23:46.691Z,0
2018-02-04T01:24:27.290Z,0
2018-02-04T01:25:07.812Z,0
2018-02-04T01:25:48.316Z,0
2018-02-04T01:26:28.878Z,0
2018-02-04T01:27:09.363Z,0
2018-02-04T01:27:49.925Z,0
2018-02-04T01:28:30.456Z,0
2018-02-04T01:29:11.019Z,0
2018-02-04T01:29:51.607Z,0
2018-02-04T01:30:32.125Z,0
2018-02-04T01:31:12.686Z,0
2018-02-04T01:31:53.225Z,0
2018-02-04T01:32:33.753Z,0
2018-02-04T01:33:14.338Z,0
2018-02-04T01:33:54.864Z,0
2018-02-04T01:34:35.402Z,0
2018-02-04T01:35:15.970Z,0
2018-02-04T01:35:56.482Z,0
2018-02-04T01:36:36.980Z,0
2018-02-04T01:37:17.525Z,0
2018-02-04T01:37:58.137Z,0
2018-02-04T01:38:38.686Z,0
2018-02-04T01:39:19.184Z,0
2018-02-04T01:39:59.731Z,0
2018-02-04T01:40:40.283Z,0
2018-02-04T01:41:20.874Z,0
2018-02-04T01:42:01.378Z,0
2018-02-04T01:42:41.899Z,0
2018-02-04T01:43:22.452Z,0
2018-02-04T01:44:03.024Z,0
2018-02-04T01:44:43.532Z,0
2018-02-04T01:45:24.100Z,0
2018-02-04T01:46:04.618Z,0
2018-02-04T01:46:45.176Z,0
2018-02-04T01:47:25.719Z,0
2018-02-04T01:48:06.292Z,0
2018-02-04T01:48:46.851Z,0
2018-02-04T01:49:27.384Z,0
2018-02-04T01:50:07.933Z,0
2018-02-04T01:50:48.464Z,0
2018-02-04T01:51:29.028Z,0
2018-02-04T01:52:09.553Z,0
2018-02-04T01:52:50.118Z,0
2018-02-04T01:53:30.682Z,0
2018-02-04T01:54:11.210Z,0
2018-02-04T01:54:51.814Z,0
2018-02-04T01:55:32.317Z,0
2018-02-04T01:56:12.871Z,0
2018-02-04T01:56:53.421Z,0
2018-02-04T01:57:33.953Z,0
2018-02-04T01:58:15.405Z,0
2018-02-04T01:58:55.904Z,0
2018-02-04T01:59:36.453Z,0
2018-02-04T02:00:17.002Z,0
2018-02-04T02:00:57.577Z,0
2018-02-04T02:01:38.102Z,0
2018-02-04T02:02:18.633Z,0
2018-02-04T02:02:59.202Z,0
2018-02-04T02:03:39.726Z,0
2018-02-04T02:04:20.286Z,0
2018-02-04T02:05:00.805Z,0
2018-02-04T02:05:41.409Z,0
2018-02-04T02:06:21.971Z,0
2018-02-04T02:07:02.524Z,0
2018-02-04T02:07:43.021Z,0
2018-02-04T02:08:23.568Z,0
2018-02-04T02:09:04.057Z,0
2018-02-04T02:09:44.631Z,0
2018-02-04T02:10:25.178Z,0
2018-02-04T02:11:05.735Z,0
2018-02-04T02:11:46.279Z,0
2018-02-04T02:12:26.858Z,0
2018-02-04T02:13:07.371Z,0
2018-02-04T02:13:47.865Z,0
2018-02-04T02:14:28.418Z,0
2018-02-04T02:15:08.975Z,0
2018-02-04T02:15:49.518Z,0
2018-02-04T02:16:30.061Z,0
2018-02-04T02:17:10.606Z,0
2018-02-04T02:17:51.167Z,0
2018-02-04T02:18:31.788Z,0
2018-02-04T02:19:12.239Z,0
2018-02-04T02:19:52.794Z,0
2018-02-04T02:20:33.343Z,0
2018-02-04T02:21:13.872Z,0
2018-02-04T02:21:54.437Z,0
2018-02-04T02:22:34.977Z,0
2018-02-04T02:23:15.518Z,0
2018-02-04T02:23:56.028Z,0
2018-02-04T02:24:36.594Z,0
2018-02-04T02:25:17.107Z,0
2018-02-04T02:25:57.622Z,0
2018-02-04T02:26:38.293Z,0
2018-02-04T02:27:18.785Z,0
2018-02-04T02:27:59.309Z,0
2018-02-04T02:28:39.866Z,0
2018-02-04T02:29:20.499Z,0
2018-02-04T02:30:00.994Z,0
2018-02-04T02:30:41.506Z,0
2018-02-04T02:31:22.026Z,0
2018-02-04T02:32:02.527Z,0
2018-02-04T02:32:43.126Z,0
2018-02-04T02:33:23.645Z,0
2018-02-04T02:34:04.198Z,0
2018-02-04T02:34:44.718Z,0
2018-02-04T02:35:25.246Z,0
2018-02-04T02:36:05.825Z,0
2018-02-04T02:36:46.373Z,0
2018-02-04T02:37:26.908Z,0
2018-02-04T02:38:07.433Z,0
2018-02-04T02:38:48.001Z,0
2018-02-04T02:39:28.499Z,0
2018-02-04T02:40:09.028Z,0
2018-02-04T02:40:49.547Z,0
2018-02-04T02:41:30.099Z,0
2018-02-04T02:42:10.584Z,0
2018-02-04T02:42:51.122Z,0
2018-02-04T02:43:31.669Z,0
2018-02-04T02:44:12.253Z,0
2018-02-04T02:44:52.736Z,0
2018-02-04T02:45:33.310Z,0
2018-02-04T02:46:13.810Z,0
2018-02-04T02:46:54.420Z,0
2018-02-04T02:47:34.937Z,0
2018-02-04T02:48:15.546Z,0
2018-02-04T02:48:56.003Z,0
2018-02-04T02:49:36.591Z,0
2018-02-04T02:50:17.116Z,0
2018-02-04T02:50:57.664Z,0
2018-02-04T02:51:38.206Z,0
2018-02-04T02:52:18.652Z,0
2018-02-04T02:52:59.214Z,0
2018-02-04T02:53:39.790Z,0
2018-02-04T02:54:20.316Z,0
2018-02-04T02:55:00.851Z,0
2018-02-04T02:55:41.379Z,0
2018-02-04T02:56:21.975Z,0
2018-02-04T02:57:02.528Z,0
2018-02-04T02:57:43.061Z,0
2018-02-04T02:58:23.596Z,0
2018-02-04T02:59:04.137Z,0
2018-02-04T02:59:44.638Z,0
2018-02-04T03:00:25.236Z,0
2018-02-04T03:01:05.755Z,0
2018-02-04T03:01:46.275Z,0
2018-02-04T03:02:26.832Z,0
2018-02-04T03:03:07.398Z,0
2018-02-04T03:03:47.919Z,0
2018-02-04T03:04:28.462Z,0
2018-02-04T03:05:08.990Z,0
2018-02-04T03:05:49.528Z,0
2018-02-04T03:06:30.036Z,0
2018-02-04T03:07:10.581Z,0
2018-02-04T03:07:51.170Z,0
2018-02-04T03:08:31.692Z,0
2018-02-04T03:09:12.233Z,0
2018-02-04T03:09:52.775Z,0
2018-02-04T03:10:33.332Z,0
2018-02-04T03:11:13.920Z,0
2018-02-04T03:11:54.480Z,0
2018-02-04T03:12:35.009Z,0
2018-02-04T03:13:15.535Z,0
2018-02-04T03:13:56.164Z,0
2018-02-04T03:14:36.698Z,0
2018-02-04T03:15:17.235Z,0
2018-02-04T03:15:57.789Z,0
2018-02-04T03:16:38.341Z,0
2018-02-04T03:17:18.883Z,0
2018-02-04T03:17:59.472Z,0
2018-02-04T03:18:39.992Z,0
2018-02-04T03:19:20.647Z,0
2018-02-04T03:20:01.127Z,0
2018-02-04T03:20:41.680Z,0
2018-02-04T03:21:22.249Z,0
2018-02-04T03:22:02.772Z,0
2018-02-04T03:22:43.376Z,0
2018-02-04T03:23:23.932Z,0
2018-02-04T03:24:04.441Z,0
2018-02-04T03:24:44.981Z,0
2018-02-04T03:25:25.488Z,0
2018-02-04T03:26:06.040Z,0
2018-02-04T03:26:46.574Z,0
2018-02-04T03:27:27.091Z,0
2018-02-04T03:28:07.635Z,0
2018-02-04T03:28:48.192Z,0
2018-02-04T03:29:28.766Z,0
2018-02-04T03:30:09.272Z,0
2018-02-04T03:30:49.789Z,0
2018-02-04T03:31:30.328Z,0
2018-02-04T03:32:10.867Z,0
2018-02-04T03:32:51.418Z,0
2018-02-04T03:33:31.938Z,0
2018-02-04T03:34:12.540Z,0
2018-02-04T03:34:53.078Z,0
2018-02-04T03:35:33.601Z,0
2018-02-04T03:36:14.122Z,0
2018-02-04T03:36:54.681Z,0
2018-02-04T03:37:35.194Z,0
2018-02-04T03:38:15.704Z,0
2018-02-04T03:38:56.282Z,0
2018-02-04T03:39:36.785Z,0
2018-02-04T03:40:17.345Z,0
2018-02-04T03:40:57.857Z,0
2018-02-04T03:41:38.418Z,0
2018-02-04T03:42:19.051Z,0
2018-02-04T03:42:59.622Z,0
2018-02-04T03:43:40.149Z,0
2018-02-04T03:44:20.718Z,0
2018-02-04T03:45:01.220Z,0
2018-02-04T03:45:41.764Z,0
2018-02-04T03:46:22.304Z,0
2018-02-04T03:47:02.842Z,0
2018-02-04T03:47:43.411Z,0
2018-02-04T03:48:24.022Z,0
2018-02-04T03:49:04.538Z,0
2018-02-04T03:49:45.156Z,0
2018-02-04T03:50:25.680Z,0
2018-02-04T03:51:06.211Z,0
2018-02-04T03:51:46.757Z,0
2018-02-04T03:52:27.335Z,0
2018-02-04T03:53:07.822Z,0
2018-02-04T03:53:48.394Z,0
2018-02-04T03:54:28.978Z,0
2018-02-04T03:55:09.506Z,0
2018-02-04T03:55:50.018Z,0
2018-02-04T03:56:30.562Z,0
2018-02-04T03:57:11.101Z,0
2018-02-04T03:57:51.670Z,0
2018-02-04T03:58:32.200Z,0
2018-02-04T03:59:12.684Z,0
2018-02-04T03:59:53.232Z,0
2018-02-04T04:00:33.774Z,0
2018-02-04T04:01:14.380Z,0
2018-02-04T04:01:54.910Z,0
2018-02-04T04:02:35.485Z,0
2018-02-04T04:03:15.979Z,0
2018-02-04T04:03:56.545Z,0
2018-02-04T04:04:37.086Z,0
2018-02-04T04:05:17.633Z,0
2018-02-04T04:05:58.159Z,0
2018-02-04T04:06:38.653Z,0
2018-02-04T04:07:19.206Z,0
2018-02-04T04:07:59.787Z,0
2018-02-04T04:08:40.294Z,0
2018-02-04T04:09:20.860Z,0
2018-02-04T04:10:01.374Z,0
2018-02-04T04:10:41.948Z,0
2018-02-04T04:11:22.501Z,0
2018-02-04T04:12:03.037Z,0
2018-02-04T04:12:43.553Z,0
2018-02-04T04:13:24.120Z,0
2018-02-04T04:14:04.626Z,0
2018-02-04T04:14:45.187Z,0
2018-02-04T04:15:25.672Z,0
2018-02-04T04:16:06.233Z,0
2018-02-04T04:16:46.781Z,0
2018-02-04T04:17:27.283Z,0
2018-02-04T04:18:07.923Z,0
2018-02-04T04:18:48.507Z,0
2018-02-04T04:19:29.068Z,0
2018-02-04T04:20:09.581Z,0
2018-02-04T04:20:50.120Z,0
2018-02-04T04:21:30.676Z,0
2018-02-04T04:22:11.144Z,0
2018-02-04T04:22:51.827Z,0
2018-02-04T04:23:32.332Z,0
2018-02-04T04:24:12.938Z,0
2018-02-04T04:24:53.422Z,0
2018-02-04T04:25:33.943Z,0
2018-02-04T04:26:14.537Z,0
2018-02-04T04:26:55.044Z,0
2018-02-04T04:27:35.649Z,0
2018-02-04T04:28:16.205Z,0
2018-02-04T04:28:56.756Z,0
2018-02-04T04:29:37.328Z,0
2018-02-04T04:30:17.795Z,0
2018-02-04T04:30:58.326Z,0
2018-02-04T04:31:38.846Z,0
2018-02-04T04:32:19.390Z,0
2018-02-04T04:32:59.940Z,0
2018-02-04T04:33:40.541Z,0
2018-02-04T04:34:21.053Z,0
2018-02-04T04:35:01.608Z,0
2018-02-04T04:35:42.235Z,0
2018-02-04T04:36:22.786Z,0
2018-02-04T04:37:03.328Z,0
2018-02-04T04:37:43.849Z,0
2018-02-04T04:38:24.414Z,0
2018-02-04T04:39:04.974Z,0
2018-02-04T04:39:45.466Z,0
2018-02-04T04:40:26.062Z,0
2018-02-04T04:41:06.626Z,0
2018-02-04T04:41:47.205Z,0
2018-02-04T04:42:28.444Z,0
2018-02-04T04:43:08.991Z,0
2018-02-04T04:43:49.488Z,0
2018-02-04T04:44:30.029Z,0
2018-02-04T04:45:10.551Z,0
2018-02-04T04:45:51.064Z,0
2018-02-04T04:46:31.621Z,0
2018-02-04T04:47:12.153Z,0
2018-02-04T04:47:52.647Z,0
2018-02-04T04:48:33.203Z,0
2018-02-04T04:49:13.759Z,0
2018-02-04T04:49:54.267Z,0
2018-02-04T04:50:34.856Z,0
2018-02-04T04:51:15.379Z,0
2018-02-04T04:51:55.853Z,0
2018-02-04T04:52:36.397Z,0
2018-02-04T04:53:16.944Z,0
2018-02-04T04:53:57.510Z,0
2018-02-04T04:54:38.018Z,0
2018-02-04T04:55:18.564Z,0
2018-02-04T04:55:59.076Z,0
2018-02-04T04:56:39.672Z,0
2018-02-04T04:57:20.148Z,0
2018-02-04T04:58:00.672Z,0
2018-02-04T04:58:41.170Z,0
2018-02-04T04:59:21.716Z,0
2018-02-04T05:00:02.299Z,0
2018-02-04T05:00:42.815Z,0
2018-02-04T05:01:23.433Z,0
2018-02-04T05:02:03.925Z,0
2018-02-04T05:02:44.448Z,0
2018-02-04T05:03:24.993Z,0
2018-02-04T05:04:05.530Z,0
2018-02-04T05:04:46.070Z,0
2018-02-04T05:05:26.573Z,0
2018-02-04T05:06:07.101Z,0
2018-02-04T05:06:47.691Z,0
2018-02-04T05:07:28.242Z,0
2018-02-04T05:08:08.755Z,0
2018-02-04T05:08:49.257Z,0
2018-02-04T05:09:29.831Z,0
2018-02-04T05:10:10.378Z,0
2018-02-04T05:10:50.970Z,0
2018-02-04T05:11:31.515Z,0
2018-02-04T05:12:12.053Z,0
2018-02-04T05:12:52.581Z,0
2018-02-04T05:13:33.175Z,0
2018-02-04T05:14:13.694Z,0
2018-02-04T05:14:54.201Z,0
2018-02-04T05:15:34.722Z,0
2018-02-04T05:16:15.318Z,0
2018-02-04T05:16:55.846Z,0
2018-02-04T05:17:36.329Z,0
2018-02-04T05:18:16.906Z,0
2018-02-04T05:18:57.443Z,0
2018-02-04T05:19:38.081Z,0
2018-02-04T05:20:18.615Z,0
2018-02-04T05:20:59.167Z,0
2018-02-04T05:21:39.764Z,0
2018-02-04T05:22:20.274Z,0
2018-02-04T05:23:00.936Z,0
2018-02-04T05:23:41.469Z,0
2018-02-04T05:24:22.002Z,0
2018-02-04T05:25:02.539Z,0
2018-02-04T05:25:43.087Z,0
2018-02-04T05:26:23.749Z,0
2018-02-04T05:27:04.225Z,0
2018-02-04T05:27:44.761Z,0
2018-02-04T05:28:25.313Z,0
2018-02-04T05:29:05.839Z,0
2018-02-04T05:29:46.384Z,0
2018-02-04T05:30:26.945Z,0
2018-02-04T05:31:07.409Z,0
2018-02-04T05:31:47.955Z,0
2018-02-04T05:32:28.575Z,0
2018-02-04T05:33:09.057Z,0
2018-02-04T05:33:49.602Z,0
2018-02-04T05:34:30.064Z,0
2018-02-04T05:35:10.638Z,0
2018-02-04T05:35:51.173Z,0
2018-02-04T05:36:31.719Z,0
2018-02-04T05:37:12.249Z,0
2018-02-04T05:37:52.842Z,0
2018-02-04T05:38:33.370Z,0
2018-02-04T05:39:13.914Z,0
2018-02-04T05:39:54.441Z,0
2018-02-04T05:40:35.083Z,0
2018-02-04T05:41:15.588Z,0
2018-02-04T05:41:56.132Z,0
2018-02-04T05:42:36.657Z,0
2018-02-04T05:43:17.209Z,0
2018-02-04T05:43:57.740Z,0
2018-02-04T05:44:38.314Z,0
2018-02-04T05:45:18.810Z,0
2018-02-04T05:45:59.324Z,0
2018-02-04T05:46:39.922Z,0
2018-02-04T05:47:20.468Z,0
2018-02-04T05:48:01.003Z,0
2018-02-04T05:48:41.575Z,0
2018-02-04T05:49:21.994Z,0
2018-02-04T05:50:02.543Z,0
2018-02-04T05:50:43.082Z,0
2018-02-04T05:51:23.638Z,0
2018-02-04T05:52:04.196Z,0
2018-02-04T05:52:44.684Z,0
2018-02-04T05:53:25.248Z,0
2018-02-04T05:54:05.962Z,0
2018-02-04T05:54:46.402Z,0
2018-02-04T05:55:26.956Z,0
2018-02-04T05:56:07.506Z,0
2018-02-04T05:56:48.033Z,0
2018-02-04T05:57:28.551Z,0
2018-02-04T05:58:09.080Z,0
2018-02-04T05:58:49.676Z,0
2018-02-04T05:59:30.176Z,0
2018-02-04T06:00:10.713Z,0
2018-02-04T06:00:51.240Z,0
2018-02-04T06:01:31.783Z,0
2018-02-04T06:02:12.361Z,0
2018-02-04T06:02:52.924Z,0
2018-02-04T06:03:33.468Z,0
2018-02-04T06:04:14.113Z,0
2018-02-04T06:04:55.487Z,0
2018-02-04T06:05:35.266Z,0
2018-02-04T06:06:15.787Z,0
2018-02-04T06:06:56.307Z,0
2018-02-04T06:07:36.885Z,0
2018-02-04T06:08:17.415Z,0
2018-02-04T06:08:57.919Z,0
2018-02-04T06:09:38.409Z,0
2018-02-04T06:10:18.963Z,0
2018-02-04T06:10:59.474Z,0
2018-02-04T06:11:40.038Z,0
2018-02-04T06:12:20.596Z,0
2018-02-04T06:13:01.180Z,0
2018-02-04T06:13:41.731Z,0
2018-02-04T06:14:22.235Z,0
2018-02-04T06:15:02.788Z,0
2018-02-04T06:15:43.273Z,0
2018-02-04T06:16:23.823Z,0
2018-02-04T06:17:04.386Z,0
2018-02-04T06:17:44.883Z,0
2018-02-04T06:18:25.419Z,0
2018-02-04T06:19:05.949Z,0
2018-02-04T06:19:46.521Z,0
2018-02-04T06:20:27.029Z,0
2018-02-04T06:21:07.566Z,0
2018-02-04T06:21:48.145Z,0
2018-02-04T06:22:28.683Z,0
2018-02-04T06:23:09.188Z,0
2018-02-04T06:23:49.742Z,0
2018-02-04T06:24:30.283Z,0
2018-02-04T06:25:10.856Z,0
2018-02-04T06:25:51.379Z,0
2018-02-04T06:26:31.891Z,0
2018-02-04T06:27:12.435Z,0
2018-02-04T06:27:52.975Z,4
2018-02-04T06:28:33.539Z,4
2018-02-04T06:29:14.115Z,4
2018-02-04T06:29:54.653Z,0
2018-02-04T06:30:35.202Z,0
2018-02-04T06:31:15.732Z,0
2018-02-04T06:31:56.287Z,4
2018-02-04T06:32:36.806Z,4
2018-02-04T06:33:17.343Z,0
2018-02-04T06:33:57.869Z,4
2018-02-04T06:34:38.371Z,4
2018-02-04T06:35:18.904Z,8
2018-02-04T06:35:59.442Z,4
2018-02-04T06:36:40.010Z,8
2018-02-04T06:37:20.493Z,4
2018-02-04T06:38:01.061Z,8
2018-02-04T06:38:41.605Z,8
2018-02-04T06:39:22.158Z,8
2018-02-04T06:40:02.697Z,8
2018-02-04T06:40:43.278Z,12
2018-02-04T06:41:23.826Z,12
2018-02-04T06:42:04.324Z,12
2018-02-04T06:42:44.907Z,12
2018-02-04T06:43:25.390Z,16
2018-02-04T06:44:05.997Z,16
2018-02-04T06:44:46.446Z,20
2018-02-04T06:45:27.029Z,20
2018-02-04T06:46:07.572Z,20
2018-02-04T06:46:48.137Z,24
2018-02-04T06:47:28.671Z,24
2018-02-04T06:48:09.219Z,24
2018-02-04T06:48:49.766Z,24
2018-02-04T06:49:30.310Z,28
2018-02-04T06:50:10.948Z,32
2018-02-04T06:50:51.463Z,36
2018-02-04T06:51:32.150Z,36
2018-02-04T06:52:12.758Z,40
2018-02-04T06:52:53.249Z,40
2018-02-04T06:53:33.796Z,44
2018-02-04T06:54:14.357Z,48
2018-02-04T06:54:54.846Z,48
2018-02-04T06:55:35.378Z,48
2018-02-04T06:56:15.914Z,48
2018-02-04T06:56:56.522Z,52
2018-02-04T06:57:37.036Z,52
2018-02-04T06:58:17.656Z,60
2018-02-04T06:58:58.210Z,60
2018-02-04T06:59:38.769Z,68
2018-02-04T07:00:19.309Z,72
2018-02-04T07:00:59.821Z,80
2018-02-04T07:01:40.388Z,84
2018-02-04T07:02:20.894Z,88
2018-02-04T07:03:01.408Z,96
2018-02-04T07:03:42.069Z,100
2018-02-04T07:04:22.610Z,108
2018-02-04T07:05:03.169Z,108
2018-02-04T07:05:43.725Z,108
2018-02-04T07:06:24.246Z,108
2018-02-04T07:07:04.805Z,108
2018-02-04T07:07:45.265Z,108
2018-02-04T07:08:25.760Z,112
2018-02-04T07:09:06.319Z,116
2018-02-04T07:09:46.855Z,120
2018-02-04T07:10:27.413Z,132
2018-02-04T07:11:08.044Z,136
2018-02-04T07:11:48.602Z,140
2018-02-04T07:12:29.153Z,152
2018-02-04T07:13:09.653Z,156
2018-02-04T07:13:50.212Z,160
2018-02-04T07:14:30.754Z,164
2018-02-04T07:15:11.412Z,172
2018-02-04T07:15:51.849Z,176
2018-02-04T07:16:32.347Z,180
2018-02-04T07:17:12.900Z,184
2018-02-04T07:17:53.457Z,188
2018-02-04T07:18:34.002Z,192
2018-02-04T07:19:14.560Z,196
2018-02-04T07:19:55.155Z,204
2018-02-04T07:20:35.696Z,212
2018-02-04T07:21:16.256Z,224
2018-02-04T07:21:56.859Z,236
2018-02-04T07:22:37.382Z,248
2018-02-04T07:23:17.951Z,264
2018-02-04T07:23:58.496Z,276
2018-02-04T07:24:39.056Z,292
2018-02-04T07:25:19.587Z,308
2018-02-04T07:26:00.128Z,324
2018-02-04T07:26:40.665Z,336
2018-02-04T07:27:21.228Z,352
2018-02-04T07:28:01.736Z,372
2018-02-04T07:28:42.283Z,388
2018-02-04T07:29:22.849Z,408
2018-02-04T07:30:03.394Z,424
2018-02-04T07:30:43.922Z,440
2018-02-04T07:31:24.476Z,452
2018-02-04T07:32:05.035Z,472
2018-02-04T07:32:45.582Z,488
2018-02-04T07:33:26.154Z,504
2018-02-04T07:34:06.676Z,520
2018-02-04T07:34:47.227Z,536
2018-02-04T07:35:27.832Z,552
2018-02-04T07:36:08.278Z,568
2018-02-04T07:36:48.837Z,576
2018-02-04T07:37:29.441Z,588
2018-02-04T07:38:09.962Z,592
2018-02-04T07:38:50.480Z,596
2018-02-04T07:39:31.050Z,588
2018-02-04T07:40:11.613Z,592
2018-02-04T07:40:52.290Z,600
2018-02-04T07:41:32.781Z,616
2018-02-04T07:42:13.390Z,640
2018-02-04T07:42:53.895Z,668
2018-02-04T07:43:34.438Z,692
2018-02-04T07:44:14.988Z,712
2018-02-04T07:44:55.491Z,724
2018-02-04T07:45:37.478Z,728
2018-02-04T07:46:18.160Z,724
2018-02-04T07:46:58.745Z,720
2018-02-04T07:47:39.359Z,728
2018-02-04T07:48:20.545Z,728
2018-02-04T07:49:01.092Z,716
2018-02-04T07:49:41.607Z,704
2018-02-04T07:50:22.159Z,720
2018-02-04T07:51:02.677Z,748
2018-02-04T07:51:43.222Z,784
2018-02-04T07:52:23.752Z,816
2018-02-04T07:53:04.336Z,852
2018-02-04T07:53:44.879Z,888
2018-02-04T07:54:25.373Z,920
2018-02-04T07:55:06.232Z,956
2018-02-04T07:55:46.729Z,992
2018-02-04T07:56:27.241Z,1020
2018-02-04T07:57:07.764Z,1044
2018-02-04T07:57:48.316Z,1072
2018-02-04T07:58:29.057Z,1104
2018-02-04T07:59:09.613Z,1144
2018-02-04T07:59:50.278Z,1192
2018-02-04T08:00:30.747Z,1236
2018-02-04T08:01:11.447Z,1284
2018-02-04T08:01:51.897Z,1344
2018-02-04T08:02:32.460Z,1404
2018-02-04T08:03:12.972Z,1464
2018-02-04T08:03:53.639Z,1520
2018-02-04T08:06:25.329Z,1712
2018-02-04T08:07:05.868Z,1732
2018-02-04T08:07:46.409Z,1740
2018-02-04T08:08:26.898Z,1716
2018-02-04T08:09:08.658Z,1672
2018-02-04T08:09:48.121Z,1604
2018-02-04T08:10:28.816Z,1520
2018-02-04T08:11:09.272Z,1432
2018-02-04T08:11:50.070Z,1356
2018-02-04T08:12:30.672Z,1296
2018-02-04T08:13:12.993Z,1252
2018-02-04T08:13:53.501Z,1236
2018-02-04T08:14:35.622Z,1228
2018-02-04T08:15:16.186Z,1208
2018-02-04T08:15:56.701Z,1184
2018-02-04T08:16:37.589Z,1152
2018-02-04T08:17:18.062Z,1112
2018-02-04T08:17:58.586Z,1060
2018-02-04T08:18:39.108Z,1000
2018-02-04T08:19:19.647Z,952
2018-02-04T08:20:00.168Z,920
2018-02-04T08:20:40.721Z,924
2018-02-04T08:21:21.294Z,916
2018-02-04T08:22:02.056Z,924
2018-02-04T08:22:42.925Z,940
2018-02-04T08:23:23.462Z,968
2018-02-04T08:24:04.080Z,980
2018-02-04T08:24:44.570Z,976
2018-02-04T08:25:25.059Z,980
2018-02-04T08:26:05.679Z,992
2018-02-04T08:26:46.123Z,1024
2018-02-04T08:27:26.733Z,1096
2018-02-04T08:28:07.489Z,1156
2018-02-04T08:28:48.047Z,1180
2018-02-04T08:29:29.139Z,1152
2018-02-04T08:30:09.273Z,1116
2018-02-04T08:30:49.819Z,1100
2018-02-04T08:31:30.633Z,1108
2018-02-04T08:32:11.605Z,1120
2018-02-04T08:32:52.197Z,1136
2018-02-04T08:33:34.005Z,1148
2018-02-04T08:34:15.091Z,1176
2018-02-04T08:34:55.575Z,1208
2018-02-04T08:35:38.540Z,1244
2018-02-04T08:36:16.938Z,1260
2018-02-04T08:36:57.448Z,1268
2018-02-04T08:37:38.104Z,1260
2018-02-04T08:38:18.782Z,1244
2018-02-04T08:38:59.305Z,1240
2018-02-04T08:39:39.916Z,1232
2018-02-04T08:40:20.955Z,1228
2018-02-04T08:41:01.360Z,1236
2018-02-04T08:41:41.898Z,1252
2018-02-04T08:42:22.611Z,1264
2018-02-04T08:43:03.126Z,1260
2018-02-04T08:43:43.779Z,1248
2018-02-04T08:44:24.260Z,1232
2018-02-04T08:45:04.891Z,1228
2018-02-04T08:45:45.398Z,1208
2018-02-04T08:46:25.924Z,1208
2018-02-04T08:47:06.438Z,1200
2018-02-04T08:47:46.965Z,1184
2018-02-04T08:48:27.493Z,1156
2018-02-04T08:49:08.061Z,1136
2018-02-04T08:49:48.570Z,1128
2018-02-04T08:50:29.157Z,1140
2018-02-04T08:51:09.681Z,1172
2018-02-04T08:51:50.244Z,1208
2018-02-04T08:52:30.736Z,1240
2018-02-04T08:53:11.330Z,1284
2018-02-04T08:53:51.851Z,1340
2018-02-04T08:54:32.441Z,1376
2018-02-04T08:55:12.969Z,1416
2018-02-04T08:55:53.576Z,1440
2018-02-04T08:56:34.075Z,1452
2018-02-04T08:57:14.602Z,1496
2018-02-04T08:57:55.148Z,1572
2018-02-04T08:58:35.672Z,1668
2018-02-04T08:59:16.347Z,1736
2018-02-04T08:59:56.895Z,1772
2018-02-04T09:00:37.448Z,1788
2018-02-04T09:01:18.846Z,1764
2018-02-04T09:02:01.010Z,1724
2018-02-04T09:02:55.597Z,1672
2018-02-04T09:03:37.820Z,1608
2018-02-04T09:04:18.416Z,1564
2018-02-04T09:04:58.932Z,1524
2018-02-04T09:05:39.506Z,1488
2018-02-04T09:06:20.144Z,1456
2018-02-04T09:07:00.752Z,1408
2018-02-04T09:07:41.261Z,1372
2018-02-04T09:08:21.867Z,1340
2018-02-04T09:09:02.554Z,1324
2018-02-04T09:09:43.082Z,1324
2018-02-04T09:10:23.652Z,1336
2018-02-04T09:11:04.222Z,1348
2018-02-04T09:11:44.809Z,1344
2018-02-04T09:12:25.327Z,1340
2018-02-04T09:13:06.553Z,1328
2018-02-04T09:13:47.001Z,1320
2018-02-04T09:14:28.140Z,1328
2018-02-04T09:15:09.841Z,1360
2018-02-04T09:15:50.366Z,1424
2018-02-04T09:16:31.019Z,1492
2018-02-04T09:17:11.566Z,1560
2018-02-04T09:17:52.086Z,1624
2018-02-04T09:18:32.672Z,1616
2018-02-04T09:19:13.226Z,1604
2018-02-04T09:19:53.716Z,1600
2018-02-04T09:20:34.307Z,1600
2018-02-04T09:21:14.994Z,1624
2018-02-04T09:21:55.543Z,1660
2018-02-04T09:22:36.073Z,1700
2018-02-04T09:23:16.546Z,1732
2018-02-04T09:23:57.049Z,1768
2018-02-04T09:24:37.596Z,1796
2018-02-04T09:25:18.167Z,1820
2018-02-04T09:25:58.688Z,1840
2018-02-04T09:26:39.481Z,1872
2018-02-04T09:27:20.002Z,1908
2018-02-04T09:28:00.566Z,1956
2018-02-04T09:28:41.134Z,2004
2018-02-04T09:29:21.649Z,2064
2018-02-04T09:30:02.233Z,2120
2018-02-04T09:30:42.748Z,2164
2018-02-04T09:31:23.255Z,2192
2018-02-04T09:32:03.765Z,2192
2018-02-04T09:32:44.322Z,2156
2018-02-04T09:33:24.910Z,2076
2018-02-04T09:34:05.409Z,1960
2018-02-04T09:34:46.020Z,1812
2018-02-04T09:35:26.486Z,1680
2018-02-04T09:36:07.035Z,1580
2018-02-04T09:36:47.576Z,1532
2018-02-04T09:37:28.166Z,1484
2018-02-04T09:38:08.713Z,1420
2018-02-04T09:38:49.183Z,1348
2018-02-04T09:39:29.906Z,1268
2018-02-04T09:40:11.093Z,1160
2018-02-04T09:40:51.528Z,1048
2018-02-04T09:41:32.124Z,948
2018-02-04T09:42:12.626Z,864
2018-02-04T09:42:53.341Z,820
2018-02-04T09:43:34.020Z,788
2018-02-04T09:44:14.840Z,752
2018-02-04T09:44:55.397Z,712
2018-02-04T09:45:35.907Z,656
2018-02-04T09:46:16.467Z,620